Time;durP1;ratioP1;P1;durP2;ratioP2;P2;SDS_P1;SDS_P2;PMS_P1;PMS_P2;Temp;Humidity;BMP_temperature;BMP_pressure;BME280_temperature;BME280_humidity;BME280_pressure;Samples;Min_cycle;Max_cycle;Signal;HPM_P1;HPM_P2
2023/10/15 00:01:52;;;;;;;1.30;0.65;;;8.70;99.90;;;;;;4976633;28;20111;-72
2023/10/15 00:04:18;;;;;;;4.55;0.88;;;8.60;99.90;;;;;;4988044;28;20035;-72
2023/10/15 00:06:43;;;;;;;9.33;1.07;;;8.70;99.90;;;;;;4994807;28;20096;-72
2023/10/15 00:09:09;;;;;;;4.00;1.20;;;8.60;99.90;;;;;;4991525;28;20045;-72
2023/10/15 00:11:35;;;;;;;2.30;0.77;;;8.70;99.90;;;;;;4994437;28;20049;-72
2023/10/15 00:14:04;;;;;;;8.80;0.90;;;8.70;99.90;;;;;;4998842;28;20049;-72
2023/10/15 00:16:31;;;;;;;2.80;0.60;;;8.60;99.90;;;;;;4999901;28;20505;-72
2023/10/15 00:18:57;;;;;;;5.47;1.30;;;8.60;99.90;;;;;;4971772;28;20054;-72
2023/10/15 00:21:23;;;;;;;3.43;0.87;;;8.60;99.90;;;;;;4995495;28;20453;-72
2023/10/15 00:23:48;;;;;;;9.85;1.23;;;8.60;99.90;;;;;;4996260;28;20061;-72
2023/10/15 00:26:15;;;;;;;5.70;0.67;;;8.50;99.90;;;;;;4994685;28;20072;-71
2023/10/15 00:28:44;;;;;;;3.90;0.93;;;8.50;99.90;;;;;;4992450;28;20429;-72
2023/10/15 00:31:13;;;;;;;9.48;0.68;;;8.50;99.90;;;;;;4995734;28;20433;-72
2023/10/15 00:33:42;;;;;;;2.42;0.60;;;8.60;99.90;;;;;;4994282;28;20092;-71
2023/10/15 00:36:13;;;;;;;3.70;0.60;;;8.50;99.90;;;;;;4992723;28;20497;-71
2023/10/15 00:38:43;;;;;;;5.65;0.50;;;8.50;99.90;;;;;;4978216;28;20864;-73
2023/10/15 00:41:15;;;;;;;3.42;0.75;;;8.50;99.90;;;;;;4988895;28;20561;-72
2023/10/15 00:43:52;;;;;;;2.35;0.60;;;8.50;99.90;;;;;;4990458;28;20116;-72
2023/10/15 00:46:18;;;;;;;5.00;0.40;;;8.60;99.90;;;;;;4991704;28;20125;-72
2023/10/15 00:48:45;;;;;;;;;;;8.60;99.90;;;;;;4995793;28;20041;-72
2023/10/15 00:51:11;;;;;;;3.25;0.60;;;8.60;99.90;;;;;;4987968;28;19924;-72
2023/10/15 00:53:51;;;;;;;6.00;0.82;;;8.60;99.90;;;;;;4992099;28;20065;-72
2023/10/15 00:56:21;;;;;;;3.88;0.50;;;8.60;99.90;;;;;;4987029;28;20052;-71
2023/10/15 01:03:53;;;;;;;4.25;0.90;;;8.70;99.90;;;;;;5000969;28;20045;-79
2023/10/15 01:06:30;;;;;;;3.95;0.88;;;8.60;99.90;;;;;;4984722;28;20105;-72
2023/10/15 01:09:08;;;;;;;3.58;0.73;;;8.70;99.90;;;;;;4990758;28;20054;-71
2023/10/15 01:11:36;;;;;;;5.88;0.90;;;8.70;99.90;;;;;;4993981;28;20214;-71
2023/10/15 01:14:01;;;;;;;6.82;1.30;;;8.60;99.90;;;;;;4996431;28;20088;-71
2023/10/15 01:16:31;;;;;;;2.00;0.83;;;8.60;99.90;;;;;;4990386;28;20046;-71
2023/10/15 01:21:53;;;;;;;3.60;1.15;;;8.60;99.90;;;;;;4987615;28;20459;-71
2023/10/15 01:24:22;;;;;;;6.15;0.95;;;8.50;99.90;;;;;;4976853;28;20045;-71
2023/10/15 01:27:30;;;;;;;9.02;1.30;;;8.50;99.90;;;;;;4990368;28;20049;-71
2023/10/15 01:29:47;;;;;;;3.90;0.93;;;8.50;99.90;;;;;;4993729;28;20089;-72
2023/10/15 01:32:15;;;;;;;7.20;1.17;;;8.60;99.90;;;;;;4993735;28;20041;-71
2023/10/15 01:34:45;;;;;;;4.70;0.98;;;8.60;99.90;;;;;;4994031;28;20033;-71
2023/10/15 01:39:48;;;;;;;5.65;1.00;;;8.60;99.90;;;;;;4987412;28;20048;-71
2023/10/15 01:45:13;;;;;;;4.97;1.35;;;8.60;99.90;;;;;;4994340;28;20050;-72
2023/10/15 01:50:32;;;;;;;6.97;0.93;;;8.60;99.90;;;;;;4992404;28;20039;-73
2023/10/15 01:53:01;;;;;;;3.20;0.52;;;8.60;99.90;;;;;;4977936;28;20052;-73
2023/10/15 01:55:29;;;;;;;4.47;0.63;;;8.60;99.90;;;;;;4992175;28;20128;-73
2023/10/15 01:57:56;;;;;;;9.00;1.02;;;8.60;99.90;;;;;;4978320;28;20046;-73
2023/10/15 02:00:34;;;;;;;2.58;0.60;;;8.60;99.90;;;;;;4975384;28;20045;-73
2023/10/15 02:03:00;;;;;;;5.57;0.73;;;8.60;99.90;;;;;;4980574;28;20052;-73
2023/10/15 02:05:29;;;;;;;2.47;0.77;;;8.60;99.90;;;;;;4970249;28;20084;-73
2023/10/15 02:07:56;;;;;;;2.60;0.70;;;8.60;99.90;;;;;;4991766;28;20060;-73
2023/10/15 02:10:28;;;;;;;6.30;0.73;;;8.60;99.90;;;;;;4995675;28;20053;-73
2023/10/15 02:13:04;;;;;;;3.17;0.60;;;8.70;99.90;;;;;;4999224;28;20034;-73
2023/10/15 02:15:38;;;;;;;6.78;0.85;;;8.70;99.90;;;;;;4992650;28;20038;-73
2023/10/15 02:18:05;;;;;;;1.50;1.05;;;8.70;99.90;;;;;;4974766;28;20045;-73
2023/10/15 02:23:21;;;;;;;7.82;0.77;;;8.50;99.90;;;;;;4995173;28;20490;-74
2023/10/15 02:25:56;;;;;;;5.18;1.30;;;8.60;99.90;;;;;;4978648;28;20072;-73
2023/10/15 02:28:31;;;;;;;4.32;0.60;;;8.60;99.90;;;;;;4996017;28;20517;-75
2023/10/15 02:33:36;;;;;;;2.70;1.00;;;8.50;99.90;;;;;;4997688;28;20264;-74
2023/10/15 02:36:09;;;;;;;4.57;0.70;;;8.50;99.90;;;;;;4996829;28;20044;-74
2023/10/15 02:38:48;;;;;;;6.82;1.38;;;8.50;99.90;;;;;;4993669;28;21252;-73
2023/10/15 02:41:17;;;;;;;2.42;0.70;;;8.40;99.90;;;;;;4993434;28;20470;-73
2023/10/15 02:43:48;;;;;;;5.15;0.80;;;8.30;99.90;;;;;;4998794;28;20031;-73
2023/10/15 02:46:23;;;;;;;4.65;0.45;;;8.30;99.90;;;;;;4997725;28;20033;-74
2023/10/15 02:48:53;;;;;;;5.97;0.70;;;8.30;99.90;;;;;;4996361;28;20076;-74
2023/10/15 02:51:23;;;;;;;5.00;0.77;;;8.20;99.90;;;;;;5001085;28;20449;-73
2023/10/15 02:53:53;;;;;;;2.50;0.30;;;8.20;99.90;;;;;;4989842;28;20072;-73
2023/10/15 02:56:23;;;;;;;0.65;0.30;;;8.20;99.90;;;;;;4974769;28;20179;-73
2023/10/15 02:58:50;;;;;;;2.53;0.60;;;8.20;99.90;;;;;;4986424;28;20145;-74
2023/10/15 03:01:19;;;;;;;2.80;0.52;;;8.10;99.90;;;;;;4994812;28;20407;-73
2023/10/15 03:03:52;;;;;;;2.05;0.25;;;8.10;99.90;;;;;;5001946;28;20052;-73
2023/10/15 03:06:24;;;;;;;2.05;0.30;;;8.10;99.90;;;;;;4991687;28;20092;-74
2023/10/15 03:08:51;;;;;;;2.78;1.20;;;8.00;99.90;;;;;;4995168;28;20099;-73
2023/10/15 03:11:19;;;;;;;;;;;8.00;99.90;;;;;;4998823;28;20034;-73
2023/10/15 03:13:54;;;;;;;1.52;0.30;;;8.00;99.90;;;;;;4982416;28;19921;-74
2023/10/15 03:16:26;;;;;;;2.33;0.32;;;7.90;99.90;;;;;;4998248;28;20193;-73
2023/10/15 03:18:52;;;;;;;2.20;0.40;;;7.90;99.90;;;;;;4999883;28;20050;-74
2023/10/15 03:21:30;;;;;;;2.63;0.57;;;8.00;99.90;;;;;;5003122;28;20045;-74
2023/10/15 03:23:57;;;;;;;3.72;0.47;;;7.90;99.90;;;;;;4999888;28;20062;-74
2023/10/15 03:26:24;;;;;;;1.17;0.20;;;7.90;99.90;;;;;;5003772;28;20041;-74
2023/10/15 03:28:51;;;;;;;5.90;0.75;;;7.90;99.90;;;;;;5000114;28;20234;-73
2023/10/15 03:31:23;;;;;;;;;;;7.90;99.90;;;;;;4995925;28;20080;-73
2023/10/15 03:36:27;;;;;;;2.47;0.25;;;8.00;99.90;;;;;;4993676;28;20040;-73
2023/10/15 03:38:54;;;;;;;3.87;0.40;;;8.00;99.90;;;;;;4996437;28;20367;-73
2023/10/15 03:41:29;;;;;;;5.25;0.88;;;8.00;99.90;;;;;;4992278;28;20540;-72
2023/10/15 03:44:02;;;;;;;3.88;0.43;;;8.00;99.90;;;;;;5004464;28;20144;-72
2023/10/15 03:46:33;;;;;;;1.95;0.30;;;8.00;99.90;;;;;;5000653;28;20044;-72
2023/10/15 03:49:07;;;;;;;3.65;0.43;;;8.00;99.90;;;;;;5002218;28;20304;-72
2023/10/15 03:51:40;;;;;;;2.50;0.20;;;8.00;99.90;;;;;;4991637;28;20041;-73
2023/10/15 03:54:07;;;;;;;2.00;0.82;;;7.90;99.90;;;;;;4993140;28;20495;-72
2023/10/15 03:56:34;;;;;;;4.47;0.30;;;7.90;99.90;;;;;;4976573;28;20507;-73
2023/10/15 03:59:02;;;;;;;1.92;0.30;;;7.90;99.90;;;;;;4981575;28;20048;-72
2023/10/15 04:01:30;;;;;;;3.95;0.60;;;7.80;99.90;;;;;;4997486;28;20045;-72
2023/10/15 04:03:55;;;;;;;2.65;0.38;;;7.80;99.90;;;;;;4999929;28;20053;-73
2023/10/15 04:06:22;;;;;;;1.13;0.20;;;7.90;99.90;;;;;;4991585;28;20034;-73
2023/10/15 04:11:30;;;;;;;1.83;0.30;;;7.80;99.90;;;;;;4999113;28;19979;-72
2023/10/15 04:13:57;;;;;;;1.52;0.20;;;7.80;99.90;;;;;;4999421;28;20099;-72
2023/10/15 04:16:23;;;;;;;2.38;0.25;;;7.80;99.90;;;;;;4981227;28;20088;-72
2023/10/15 04:18:49;;;;;;;4.67;0.70;;;7.80;99.90;;;;;;4999834;28;20077;-72
2023/10/15 04:21:19;;;;;;;1.20;0.40;;;7.80;99.90;;;;;;5004460;28;20044;-72
2023/10/15 04:23:52;;;;;;;1.92;0.73;;;7.80;99.90;;;;;;5000031;28;20061;-73
2023/10/15 04:26:22;;;;;;;2.45;0.60;;;7.80;99.90;;;;;;4998419;28;20069;-73
2023/10/15 04:28:52;;;;;;;3.58;0.32;;;7.80;99.90;;;;;;4999194;28;20054;-74
2023/10/15 04:31:22;;;;;;;4.43;0.70;;;7.90;99.90;;;;;;4994497;28;20042;-72
2023/10/15 04:33:51;;;;;;;1.23;0.40;;;7.80;99.90;;;;;;4980628;28;20482;-72
2023/10/15 04:36:17;;;;;;;4.13;0.60;;;7.80;99.90;;;;;;5001538;28;20038;-72
2023/10/15 04:38:43;;;;;;;2.90;0.13;;;7.80;99.90;;;;;;4994498;28;20096;-72
2023/10/15 04:41:10;;;;;;;1.40;0.50;;;7.90;99.90;;;;;;4988346;28;20053;-72
2023/10/15 04:43:45;;;;;;;1.02;0.30;;;7.90;99.90;;;;;;4995521;28;20046;-72
2023/10/15 04:46:17;;;;;;;2.40;0.40;;;7.90;99.90;;;;;;5013661;28;20038;-72
2023/10/15 04:48:50;;;;;;;2.60;0.80;;;7.90;99.90;;;;;;4979350;28;20088;-70
2023/10/15 04:51:16;;;;;;;3.70;0.50;;;7.90;99.90;;;;;;4982601;28;20037;-70
2023/10/15 04:53:44;;;;;;;1.17;0.40;;;7.90;99.90;;;;;;4995524;28;20056;-69
2023/10/15 04:56:11;;;;;;;1.92;0.40;;;7.90;99.90;;;;;;4995534;28;20059;-70
2023/10/15 04:58:37;;;;;;;3.05;0.35;;;8.00;99.90;;;;;;4992151;28;20042;-69
2023/10/15 05:01:04;;;;;;;4.90;0.50;;;8.00;99.90;;;;;;5003242;28;20540;-70
2023/10/15 05:03:34;;;;;;;1.95;0.38;;;8.00;99.90;;;;;;4992997;28;20038;-70
2023/10/15 05:06:06;;;;;;;2.80;0.47;;;8.00;99.90;;;;;;4987857;28;20046;-70
2023/10/15 05:08:34;;;;;;;8.57;0.77;;;8.00;99.90;;;;;;4996437;28;20149;-74
2023/10/15 05:11:00;;;;;;;3.95;0.45;;;8.00;99.90;;;;;;4978346;28;20052;-69
2023/10/15 05:13:26;;;;;;;4.97;0.70;;;8.00;99.90;;;;;;5002327;28;20034;-70
2023/10/15 05:15:52;;;;;;;3.53;0.37;;;8.00;99.90;;;;;;4997614;28;20307;-72
2023/10/15 05:18:18;;;;;;;1.02;0.22;;;7.90;99.90;;;;;;4990928;28;20046;-72
2023/10/15 05:20:47;;;;;;;2.50;0.50;;;7.90;99.90;;;;;;4995696;28;20058;-73
2023/10/15 05:23:13;;;;;;;3.45;0.40;;;7.90;99.90;;;;;;5002617;28;21404;-72
2023/10/15 05:25:39;;;;;;;2.50;0.70;;;7.90;99.90;;;;;;5001368;28;20276;-72
2023/10/15 05:28:05;;;;;;;1.73;0.30;;;7.90;99.90;;;;;;5003489;28;20045;-72
2023/10/15 05:30:31;;;;;;;3.10;0.63;;;7.90;99.90;;;;;;4985304;28;20048;-72
2023/10/15 05:33:00;;;;;;;2.97;0.73;;;7.90;99.90;;;;;;5001440;28;20038;-74
2023/10/15 05:35:29;;;;;;;5.20;0.70;;;7.90;99.90;;;;;;4994386;28;20046;-72
2023/10/15 05:37:55;;;;;;;6.65;1.02;;;7.80;99.90;;;;;;5002188;28;20042;-72
2023/10/15 05:40:21;;;;;;;2.15;0.70;;;7.80;99.90;;;;;;4991959;28;20053;-74
2023/10/15 05:42:48;;;;;;;4.80;0.55;;;7.80;99.90;;;;;;5000208;28;20605;-74
2023/10/15 05:45:14;;;;;;;6.18;0.50;;;7.80;99.90;;;;;;4998893;28;20042;-74
2023/10/15 05:47:44;;;;;;;3.97;0.50;;;7.80;99.90;;;;;;4996443;28;20053;-74
2023/10/15 05:50:12;;;;;;;1.35;0.32;;;7.70;99.90;;;;;;4994503;28;20541;-74
2023/10/15 05:52:38;;;;;;;0.93;0.40;;;7.70;99.90;;;;;;4997477;28;20034;-74
2023/10/15 05:55:06;;;;;;;3.35;0.50;;;7.70;99.90;;;;;;4997427;28;20114;-74
2023/10/15 05:57:33;;;;;;;3.08;0.70;;;7.60;99.90;;;;;;4985917;28;20525;-74
2023/10/15 06:00:06;;;;;;;2.67;0.80;;;7.60;99.90;;;;;;4995076;28;20061;-74
2023/10/15 06:02:43;;;;;;;7.35;1.95;;;7.60;99.90;;;;;;4994768;28;20053;-74
2023/10/15 06:05:10;;;;;;;8.50;2.33;;;7.60;99.90;;;;;;4998027;28;20052;-74
2023/10/15 06:07:37;;;;;;;3.15;1.15;;;7.50;99.90;;;;;;4977135;28;20046;-74
2023/10/15 06:10:03;;;;;;;2.83;0.70;;;7.60;99.90;;;;;;4995467;28;20049;-74
2023/10/15 06:12:29;;;;;;;2.35;0.50;;;7.60;99.90;;;;;;4986528;28;20137;-74
2023/10/15 06:14:54;;;;;;;1.33;0.30;;;7.60;99.90;;;;;;4987521;28;20128;-74
2023/10/15 06:17:20;;;;;;;1.73;0.30;;;7.50;99.90;;;;;;4985680;28;20034;-74
2023/10/15 06:19:46;;;;;;;1.17;0.30;;;7.50;99.90;;;;;;4991660;28;20053;-75
2023/10/15 06:22:12;;;;;;;2.20;0.35;;;7.50;99.90;;;;;;4995033;28;20042;-74
2023/10/15 06:24:37;;;;;;;3.57;0.70;;;7.40;99.90;;;;;;4991848;28;20269;-74
2023/10/15 06:27:04;;;;;;;10.10;3.20;;;7.40;99.90;;;;;;4987598;28;20560;-74
2023/10/15 06:29:30;;;;;;;7.15;1.52;;;7.40;99.90;;;;;;4997002;28;20047;-74
2023/10/15 06:31:55;;;;;;;2.40;0.87;;;7.40;99.90;;;;;;4996386;28;20058;-70
2023/10/15 06:34:22;;;;;;;0.53;0.33;;;7.40;99.90;;;;;;4990752;28;20057;-74
2023/10/15 06:36:47;;;;;;;2.22;0.45;;;7.40;99.90;;;;;;4987519;28;20038;-74
2023/10/15 06:39:13;;;;;;;2.70;0.93;;;7.40;99.90;;;;;;4993319;28;20443;-73
2023/10/15 06:41:39;;;;;;;3.80;0.60;;;7.40;99.90;;;;;;4991665;28;20088;-74
2023/10/15 06:44:04;;;;;;;2.00;0.40;;;7.40;99.90;;;;;;4996920;28;20053;-74
2023/10/15 06:46:31;;;;;;;1.87;0.63;;;7.40;99.90;;;;;;4992334;28;20477;-74
2023/10/15 06:48:56;;;;;;;2.85;0.60;;;7.40;99.90;;;;;;4993685;28;20060;-74
2023/10/15 06:51:22;;;;;;;2.90;0.57;;;7.40;99.90;;;;;;4999519;28;20041;-73
2023/10/15 06:53:48;;;;;;;2.30;0.40;;;7.40;99.90;;;;;;4989786;28;20068;-74
2023/10/15 06:56:17;;;;;;;4.03;0.67;;;7.40;99.90;;;;;;4988609;28;20045;-74
2023/10/15 06:58:43;;;;;;;3.50;0.80;;;7.40;99.90;;;;;;4990974;28;20470;-74
2023/10/15 07:01:10;;;;;;;3.85;1.55;;;7.40;99.90;;;;;;4986852;28;20042;-74
2023/10/15 07:03:36;;;;;;;3.85;1.88;;;7.40;99.90;;;;;;4990072;28;20046;-74
2023/10/15 07:06:02;;;;;;;5.50;1.00;;;7.30;99.90;;;;;;4991407;28;20041;-74
2023/10/15 07:08:28;;;;;;;3.93;0.60;;;7.30;99.90;;;;;;4977522;28;20116;-74
2023/10/15 07:10:53;;;;;;;2.93;0.53;;;7.30;99.90;;;;;;4991235;28;20047;-74
2023/10/15 07:13:19;;;;;;;5.13;0.90;;;7.40;99.90;;;;;;4990669;28;20107;-74
2023/10/15 07:15:47;;;;;;;2.72;0.75;;;7.30;99.90;;;;;;4991451;28;20096;-74
2023/10/15 07:18:13;;;;;;;2.22;0.52;;;7.30;99.90;;;;;;4995235;28;20076;-73
2023/10/15 07:20:39;;;;;;;3.83;0.40;;;7.30;99.90;;;;;;4990900;28;20046;-73
2023/10/15 07:23:05;;;;;;;1.30;0.50;;;7.30;99.90;;;;;;4992403;28;20109;-73
2023/10/15 07:25:32;;;;;;;3.30;0.70;;;7.30;99.90;;;;;;4990895;28;20300;-73
2023/10/15 07:27:59;;;;;;;0.95;0.40;;;7.30;99.90;;;;;;4992480;28;20049;-74
2023/10/15 07:30:25;;;;;;;1.35;0.32;;;7.40;99.90;;;;;;4994053;28;20206;-73
2023/10/15 07:32:53;;;;;;;2.22;0.60;;;7.40;99.90;;;;;;4974021;28;20054;-73
2023/10/15 07:35:21;;;;;;;6.38;0.80;;;7.50;99.90;;;;;;4993523;28;20503;-73
2023/10/15 07:37:49;;;;;;;5.88;1.83;;;7.60;99.90;;;;;;5000562;28;20116;-73
2023/10/15 07:40:17;;;;;;;3.13;0.85;;;7.60;99.90;;;;;;4993383;28;28497;-73
2023/10/15 07:42:44;;;;;;;1.75;0.40;;;7.70;99.90;;;;;;4986806;28;20148;-73
2023/10/15 07:45:10;;;;;;;5.35;0.68;;;7.70;99.90;;;;;;4999111;28;20053;-73
2023/10/15 07:47:39;;;;;;;2.10;0.50;;;7.70;99.90;;;;;;4997453;28;20034;-73
2023/10/15 07:50:09;;;;;;;6.50;0.50;;;7.70;99.90;;;;;;4985730;28;20053;-73
2023/10/15 07:52:35;;;;;;;3.08;0.40;;;7.80;99.90;;;;;;4990793;28;20038;-73
2023/10/15 07:55:01;;;;;;;5.63;0.75;;;7.80;99.90;;;;;;4998759;28;20092;-73
2023/10/15 07:57:27;;;;;;;3.90;0.52;;;7.90;99.90;;;;;;4981371;28;20106;-73
2023/10/15 07:59:58;;;;;;;2.67;0.60;;;7.90;99.90;;;;;;4993542;28;20103;-73
2023/10/15 08:02:24;;;;;;;6.82;1.15;;;8.00;99.90;;;;;;4979323;28;20497;-73
2023/10/15 08:04:54;;;;;;;2.08;0.93;;;8.10;99.90;;;;;;4996397;28;20125;-73
2023/10/15 08:07:23;;;;;;;2.45;0.63;;;8.20;99.90;;;;;;4989498;28;20497;-74
2023/10/15 08:09:50;;;;;;;1.60;0.38;;;8.20;99.90;;;;;;5000260;28;20128;-74
2023/10/15 08:12:20;;;;;;;3.40;0.57;;;8.30;99.90;;;;;;4984249;28;20671;-74
2023/10/15 08:14:47;;;;;;;3.10;0.60;;;8.40;99.90;;;;;;4999854;28;20038;-74
2023/10/15 08:17:15;;;;;;;;;;;8.40;99.90;;;;;;5001576;28;20040;-74
2023/10/15 08:19:41;;;;;;;1.42;0.45;;;8.40;99.90;;;;;;4989708;28;19918;-74
2023/10/15 08:22:10;;;;;;;2.47;0.83;;;8.40;99.90;;;;;;4990603;28;20293;-74
2023/10/15 08:24:38;;;;;;;2.45;0.45;;;8.40;99.90;;;;;;4995307;28;20050;-74
2023/10/15 08:27:07;;;;;;;2.33;0.30;;;8.40;99.90;;;;;;4992032;28;20454;-74
2023/10/15 08:29:33;;;;;;;5.10;0.93;;;8.30;99.90;;;;;;4979625;28;20042;-74
2023/10/15 08:32:01;;;;;;;2.78;0.45;;;8.30;99.90;;;;;;4994552;28;20068;-74
2023/10/15 08:34:28;;;;;;;1.50;0.50;;;8.30;99.90;;;;;;4997484;28;20113;-74
2023/10/15 08:36:53;;;;;;;5.82;0.60;;;8.30;99.90;;;;;;4993938;28;20043;-74
2023/10/15 08:39:19;;;;;;;2.97;0.30;;;8.20;99.90;;;;;;4980411;28;20054;-74
2023/10/15 08:41:46;;;;;;;4.40;0.40;;;8.20;99.90;;;;;;4989015;28;20054;-74
2023/10/15 08:44:18;;;;;;;1.30;0.30;;;8.10;99.90;;;;;;4980086;28;20052;-74
2023/10/15 08:46:45;;;;;;;4.55;0.40;;;8.10;99.90;;;;;;4992946;28;20038;-73
2023/10/15 08:49:12;;;;;;;2.53;0.32;;;8.00;99.90;;;;;;4997746;28;20456;-74
2023/10/15 08:51:39;;;;;;;1.92;0.65;;;8.00;99.90;;;;;;4993731;28;20049;-74
2023/10/15 08:54:14;;;;;;;3.80;0.50;;;8.10;99.90;;;;;;4997833;28;20131;-74
2023/10/15 08:56:40;;;;;;;5.25;1.25;;;8.20;99.90;;;;;;4992526;28;20072;-73
2023/10/15 08:59:09;;;;;;;5.68;0.93;;;8.40;99.90;;;;;;4996466;28;20068;-73
2023/10/15 09:01:37;;;;;;;3.05;0.50;;;8.40;99.90;;;;;;4989999;28;20046;-74
2023/10/15 09:04:04;;;;;;;2.15;0.77;;;8.50;99.90;;;;;;4995868;28;20056;-76
2023/10/15 09:06:30;;;;;;;3.90;0.43;;;8.60;99.90;;;;;;4993086;28;20073;-74
2023/10/15 09:08:56;;;;;;;6.38;0.70;;;8.70;99.90;;;;;;4989355;28;20053;-74
2023/10/15 09:11:22;;;;;;;6.38;0.82;;;8.90;99.90;;;;;;4995949;28;20045;-74
2023/10/15 09:13:51;;;;;;;4.17;0.93;;;9.00;99.90;;;;;;4987265;28;20041;-74
2023/10/15 09:16:19;;;;;;;5.70;0.77;;;9.20;99.90;;;;;;4972865;28;20105;-70
2023/10/15 09:18:45;;;;;;;2.47;0.68;;;9.30;99.90;;;;;;4994868;28;20038;-70
2023/10/15 09:21:23;;;;;;;2.83;0.50;;;9.40;99.90;;;;;;4992064;28;20050;-71
2023/10/15 09:23:52;;;;;;;6.35;0.98;;;9.60;99.90;;;;;;4999302;28;20050;-71
2023/10/15 09:26:18;;;;;;;2.70;0.73;;;9.60;99.90;;;;;;4990743;28;20038;-70
2023/10/15 09:28:49;;;;;;;3.50;0.73;;;9.70;99.90;;;;;;4993725;28;20049;-70
2023/10/15 09:31:15;;;;;;;3.15;0.57;;;9.70;99.90;;;;;;4998580;28;20054;-71
2023/10/15 09:33:43;;;;;;;4.83;1.40;;;9.70;99.90;;;;;;4989442;28;20919;-71
2023/10/15 09:36:10;;;;;;;4.75;0.93;;;9.70;99.90;;;;;;4974482;28;20577;-71
2023/10/15 09:38:36;;;;;;;1.70;0.50;;;9.70;99.90;;;;;;5012677;28;20072;-71
2023/10/15 09:41:03;;;;;;;6.38;0.68;;;9.70;99.90;;;;;;5015638;28;20033;-70
2023/10/15 09:43:35;;;;;;;5.95;0.90;;;9.70;99.90;;;;;;5006556;28;20053;-71
2023/10/15 09:46:03;;;;;;;6.40;0.80;;;9.60;99.90;;;;;;5011798;28;20782;-70
2023/10/15 09:48:29;;;;;;;4.55;0.73;;;9.60;99.90;;;;;;5003899;28;20042;-70
2023/10/15 09:50:59;;;;;;;6.60;0.70;;;9.60;99.90;;;;;;5013426;28;20058;-71
2023/10/15 09:53:27;;;;;;;2.47;0.77;;;9.50;99.90;;;;;;5016178;28;20104;-71
2023/10/15 09:55:54;;;;;;;5.85;0.70;;;9.50;99.90;;;;;;5018928;28;20405;-71
2023/10/15 09:58:20;;;;;;;6.20;0.95;;;9.40;99.90;;;;;;5017232;28;20115;-71
2023/10/15 10:04:16;;;;;;;2.70;0.68;;;9.20;99.90;;;;;;5012047;28;20485;-71
2023/10/15 10:06:48;;;;;;;6.45;0.75;;;9.20;99.90;;;;;;4998901;28;20039;-71
2023/10/15 10:09:38;;;;;;;6.22;1.25;;;9.20;99.90;;;;;;5016790;28;20052;-71
2023/10/15 10:12:26;;;;;;;1.90;0.68;;;9.40;99.90;;;;;;5005209;28;20202;-71
2023/10/15 10:15:10;;;;;;;3.03;0.70;;;9.60;99.90;;;;;;5020677;28;20045;-71
2023/10/15 10:17:38;;;;;;;6.63;1.52;;;9.90;99.90;;;;;;5012469;28;20037;-73
2023/10/15 10:20:11;;;;;;;5.72;1.10;;;10.00;99.90;;;;;;5009623;28;20045;-72
2023/10/15 10:22:41;;;;;;;5.38;0.88;;;10.20;99.90;;;;;;5011150;28;20069;-72
2023/10/15 10:25:07;;;;;;;1.92;0.50;;;10.30;99.90;;;;;;5002343;28;20127;-73
2023/10/15 10:27:46;;;;;;;1.02;0.40;;;10.20;99.90;;;;;;5002982;28;20052;-72
2023/10/15 10:30:30;;;;;;;1.58;0.40;;;10.00;99.90;;;;;;5006903;28;20045;-72
2023/10/15 10:32:57;;;;;;;1.02;0.30;;;9.80;99.90;;;;;;5002794;28;20042;-72
2023/10/15 10:35:24;;;;;;;2.33;0.50;;;9.70;99.90;;;;;;5005977;28;20045;-72
2023/10/15 10:38:15;;;;;;;3.03;0.45;;;9.60;99.90;;;;;;5016073;28;20395;-72
2023/10/15 10:41:04;;;;;;;2.40;0.30;;;9.50;99.90;;;;;;5007613;28;20048;-72
2023/10/15 10:43:30;;;;;;;2.03;0.40;;;9.50;99.90;;;;;;5010581;28;20180;-73
2023/10/15 10:45:56;;;;;;;1.95;0.55;;;9.40;99.90;;;;;;5009886;28;20037;-72
2023/10/15 10:48:39;;;;;;;6.57;1.00;;;9.50;99.90;;;;;;5008701;28;20099;-71
2023/10/15 10:51:21;;;;;;;3.15;0.60;;;9.60;99.90;;;;;;5005752;28;20113;-72
2023/10/15 10:53:56;;;;;;;2.72;0.43;;;9.70;99.90;;;;;;5024277;28;20053;-72
2023/10/15 10:56:44;;;;;;;0.98;0.65;;;9.90;99.90;;;;;;5010816;28;20103;-72
2023/10/15 10:59:11;;;;;;;1.92;0.47;;;10.20;99.90;;;;;;5011967;28;20041;-78
2023/10/15 11:01:42;;;;;;;2.28;0.60;;;10.30;99.90;;;;;;5013920;28;20456;-76
2023/10/15 11:04:13;;;;;;;3.40;0.40;;;10.60;99.90;;;;;;5014272;28;20401;-73
2023/10/15 11:06:45;;;;;;;2.88;0.57;;;10.60;99.90;;;;;;5014886;28;20050;-72
2023/10/15 11:09:23;;;;;;;3.67;0.40;;;10.60;99.90;;;;;;4999321;28;20103;-73
2023/10/15 11:11:53;;;;;;;3.88;0.63;;;10.50;99.90;;;;;;5019042;28;20132;-74
2023/10/15 11:14:23;;;;;;;2.10;0.50;;;10.40;99.90;;;;;;4999483;28;20149;-73
2023/10/15 11:16:55;;;;;;;2.78;0.57;;;10.20;99.90;;;;;;5013703;28;20076;-73
2023/10/15 11:19:28;;;;;;;0.55;0.22;;;10.10;99.90;;;;;;5005082;28;20385;-74
2023/10/15 11:21:55;;;;;;;2.10;0.80;;;10.20;99.90;;;;;;4996002;28;20493;-73
2023/10/15 11:24:26;;;;;;;3.47;0.75;;;10.20;99.90;;;;;;5012959;28;20498;-74
2023/10/15 11:26:57;;;;;;;2.28;0.52;;;10.40;99.90;;;;;;5011529;28;20290;-71
2023/10/15 11:29:24;;;;;;;2.88;0.52;;;10.50;99.90;;;;;;5013122;28;20123;-72
2023/10/15 11:31:53;;;;;;;4.68;0.60;;;10.70;99.90;;;;;;5016145;28;20134;-72
2023/10/15 11:34:21;;;;;;;4.13;0.90;;;10.80;99.90;;;;;;4996434;28;20231;-72
2023/10/15 11:36:50;;;;;;;1.73;0.88;;;11.00;99.90;;;;;;5008390;28;20520;-73
2023/10/15 11:39:19;;;;;;;3.97;0.55;;;11.10;99.90;;;;;;5019463;28;20049;-72
2023/10/15 11:41:52;;;;;;;4.05;0.75;;;11.30;99.90;;;;;;5007834;28;20370;-73
2023/10/15 11:44:25;;;;;;;3.08;0.73;;;11.50;99.90;;;;;;5014906;28;20033;-72
2023/10/15 11:46:55;;;;;;;6.18;0.80;;;11.60;99.90;;;;;;5022074;28;20509;-73
2023/10/15 11:49:24;;;;;;;3.97;0.90;;;11.70;99.90;;;;;;5012566;28;20076;-73
2023/10/15 11:51:55;;;;;;;5.75;0.60;;;12.00;99.90;;;;;;5011212;28;20052;-72
2023/10/15 11:54:30;;;;;;;5.30;0.70;;;12.10;99.90;;;;;;5012874;28;20410;-71
2023/10/15 11:56:59;;;;;;;2.55;0.60;;;12.00;99.90;;;;;;4999971;28;20033;-72
2023/10/15 11:59:26;;;;;;;4.25;0.80;;;11.50;99.90;;;;;;5005666;28;20049;-72
2023/10/15 12:01:53;;;;;;;;;;;11.30;99.90;;;;;;5005696;28;20062;-71
2023/10/15 12:04:19;;;;;;;3.63;1.00;;;11.00;99.90;;;;;;4996467;28;21494;-71
2023/10/15 12:06:48;;;;;;;2.70;0.55;;;10.70;99.90;;;;;;4999036;28;20048;-71
2023/10/15 12:09:16;;;;;;;6.13;0.75;;;10.50;99.90;;;;;;4977826;28;20526;-72
2023/10/15 12:11:46;;;;;;;1.30;0.50;;;10.30;99.90;;;;;;4998270;28;20400;-72
2023/10/15 12:14:12;;;;;;;4.75;0.70;;;10.30;99.90;;;;;;4998958;28;20131;-72
2023/10/15 12:16:41;;;;;;;5.13;0.68;;;10.30;99.90;;;;;;5000568;28;20163;-72
2023/10/15 12:19:17;;;;;;;4.30;1.10;;;10.40;99.90;;;;;;5009867;28;20045;-72
2023/10/15 12:21:43;;;;;;;1.73;0.70;;;10.50;99.90;;;;;;5006605;28;20080;-72
2023/10/15 12:24:11;;;;;;;2.28;0.60;;;10.70;99.90;;;;;;5012815;28;20091;-72
2023/10/15 12:26:36;;;;;;;4.18;0.57;;;10.80;99.90;;;;;;5004949;28;23984;-76
2023/10/15 12:29:05;;;;;;;3.42;0.65;;;11.00;99.90;;;;;;5013481;28;20478;-78
2023/10/15 12:31:32;;;;;;;3.33;0.40;;;11.10;99.90;;;;;;5012893;28;20868;-79
2023/10/15 12:34:00;;;;;;;3.88;0.73;;;11.30;99.90;;;;;;5001891;28;20045;-78
2023/10/15 12:36:28;;;;;;;2.03;0.77;;;11.40;99.90;;;;;;5012354;28;20148;-77
2023/10/15 12:38:56;;;;;;;2.95;0.65;;;11.50;99.90;;;;;;5020146;28;20045;-78
2023/10/15 12:41:25;;;;;;;5.60;0.40;;;11.50;99.90;;;;;;4980548;28;20041;-74
2023/10/15 12:43:58;;;;;;;6.45;0.93;;;11.50;99.90;;;;;;4996119;28;20042;-74
2023/10/15 12:46:26;;;;;;;3.08;0.40;;;11.40;99.90;;;;;;5007374;28;20045;-79
2023/10/15 12:48:56;;;;;;;6.18;0.70;;;11.40;99.90;;;;;;5019586;28;20129;-79
2023/10/15 12:51:22;;;;;;;5.15;0.60;;;11.40;99.90;;;;;;5005318;28;20053;-75
2023/10/15 12:53:48;;;;;;;1.60;0.50;;;11.50;99.90;;;;;;5014997;28;20074;-76
2023/10/15 12:56:13;;;;;;;4.07;0.50;;;11.80;99.90;;;;;;4994173;28;20105;-75
2023/10/15 12:58:39;;;;;;;4.37;0.63;;;12.00;99.90;;;;;;5014921;28;20044;-76
2023/10/15 13:01:07;;;;;;;3.20;0.50;;;12.20;99.90;;;;;;5004302;28;20089;-73
2023/10/15 13:03:38;;;;;;;2.50;0.50;;;12.20;99.90;;;;;;5014252;28;20458;-76
2023/10/15 13:06:06;;;;;;;7.28;0.52;;;12.10;99.90;;;;;;5009281;28;20387;-77
2023/10/15 13:08:32;;;;;;;4.30;0.63;;;11.90;99.90;;;;;;5013382;28;20056;-76
2023/10/15 13:10:58;;;;;;;1.57;0.30;;;11.80;99.90;;;;;;5009353;28;20299;-77
2023/10/15 13:13:23;;;;;;;5.07;0.37;;;11.70;99.90;;;;;;5013278;28;20053;-73
2023/10/15 13:15:51;;;;;;;5.93;1.60;;;11.60;99.90;;;;;;5010239;28;20048;-73
2023/10/15 13:18:17;;;;;;;2.38;0.68;;;11.50;99.90;;;;;;5017174;28;20446;-73
2023/10/15 13:20:43;;;;;;;5.40;0.97;;;11.30;99.90;;;;;;5009101;28;20049;-73
2023/10/15 13:23:09;;;;;;;5.73;0.83;;;11.20;99.90;;;;;;5008422;28;20074;-74
2023/10/15 13:25:34;;;;;;;2.67;0.93;;;11.10;99.90;;;;;;4985218;28;20045;-74
2023/10/15 13:28:00;;;;;;;3.60;0.47;;;11.00;99.90;;;;;;5019141;28;20060;-73
2023/10/15 13:30:28;;;;;;;3.70;1.00;;;10.90;99.90;;;;;;5016868;28;20045;-73
2023/10/15 13:32:53;;;;;;;2.72;0.70;;;10.70;99.90;;;;;;5015670;28;20493;-74
2023/10/15 13:35:19;;;;;;;4.83;0.47;;;10.70;99.90;;;;;;5009197;28;21296;-76